Time;durP1;ratioP1;P1;durP2;ratioP2;P2;SDS_P1;SDS_P2;PMS_P1;PMS_P2;Temp;Humidity;BMP_temperature;BMP_pressure;BME280_temperature;BME280_humidity;BME280_pressure;Samples;Min_cycle;Max_cycle;Signal;HPM_P1;HPM_P2
2022/10/17 00:01:01;;;;;;;0.70;0.70;;;;;;;11.38;100.00;101684.91;5086100;28;20256;-73
2022/10/17 00:03:28;;;;;;;0.70;0.70;;;;;;;11.30;100.00;101673.38;5085705;28;20194;-72
2022/10/17 00:05:54;;;;;;;0.70;0.70;;;;;;;11.27;100.00;101675.81;5067068;28;20643;-73
2022/10/17 00:08:21;;;;;;;0.68;0.68;;;;;;;11.21;100.00;101686.00;5085074;28;20663;-73
2022/10/17 00:10:57;;;;;;;0.63;0.63;;;;;;;11.30;100.00;101681.16;5087446;28;20205;-72
2022/10/17 00:13:23;;;;;;;0.73;0.73;;;;;;;10.62;100.00;101590.28;5085143;28;20217;-73
2022/10/17 00:15:50;;;;;;;0.73;0.73;;;;;;;11.22;100.00;101690.38;5087967;28;20202;-72
2022/10/17 00:18:18;;;;;;;0.70;0.70;;;;;;;11.30;100.00;101683.75;5086743;28;20221;-72
2022/10/17 00:20:45;;;;;;;0.80;0.80;;;;;;;11.24;100.00;101680.03;5085202;28;20206;-73
2022/10/17 00:23:12;;;;;;;0.80;0.80;;;;;;;11.15;100.00;101680.56;5055707;28;20213;-73
2022/10/17 00:25:39;;;;;;;0.70;0.70;;;;;;;11.23;100.00;101689.56;5085048;28;20210;-73
2022/10/17 00:28:06;;;;;;;0.70;0.70;;;;;;;11.23;100.00;101689.56;5085429;28;20194;-73
2022/10/17 00:30:33;;;;;;;0.82;0.82;;;;;;;11.24;100.00;101682.63;5085004;28;20202;-72
2022/10/17 00:32:59;;;;;;;0.80;0.80;;;;;;;11.29;100.00;101683.69;5085272;28;20198;-73
2022/10/17 00:35:28;;;;;;;0.70;0.70;;;;;;;11.31;100.00;101688.09;5084934;28;20198;-72
2022/10/17 00:37:54;;;;;;;0.70;0.70;;;;;;;11.21;100.00;101683.41;5084279;28;20272;-73
2022/10/17 00:40:21;;;;;;;0.70;0.70;;;;;;;11.19;100.00;101685.06;5085481;28;20206;-72
2022/10/17 00:42:50;;;;;;;0.60;0.60;;;;;;;11.16;100.00;101678.88;5084237;28;20228;-73
2022/10/17 00:45:22;;;;;;;0.68;0.68;;;;;;;10.45;100.00;101542.06;5088422;28;20208;-72
2022/10/17 00:47:52;;;;;;;0.88;0.88;;;;;;;11.07;100.00;101657.72;5085827;28;20202;-73
2022/10/17 00:50:19;;;;;;;0.70;0.70;;;;;;;11.14;100.00;101673.59;5086781;28;20263;-73
2022/10/17 00:52:49;;;;;;;0.80;0.80;;;;;;;11.21;100.00;101675.59;5049426;28;20229;-73
2022/10/17 00:55:21;;;;;;;1.20;1.20;;;;;;;10.97;100.00;101656.50;5084324;28;20194;-73
2022/10/17 00:57:48;;;;;;;0.80;0.80;;;;;;;11.06;100.00;101677.59;5083879;28;20763;-72
2022/10/17 01:00:16;;;;;;;0.70;0.70;;;;;;;10.95;100.00;101652.97;5085212;28;20346;-73
2022/10/17 01:02:43;;;;;;;0.70;0.70;;;;;;;11.07;100.00;101681.09;5085969;28;20198;-72
2022/10/17 01:05:11;;;;;;;0.70;0.70;;;;;;;11.15;100.00;101680.56;5084205;28;20194;-73
2022/10/17 01:07:40;;;;;;;0.70;0.70;;;;;;;10.93;100.00;101628.66;5084372;28;20660;-73
2022/10/17 01:10:09;;;;;;;0.73;0.73;;;;;;;11.08;100.00;101641.34;5087200;28;20197;-73
2022/10/17 01:12:52;;;;;;;0.70;0.70;;;;;;;11.40;100.00;101690.19;5084865;28;20213;-73
2022/10/17 01:15:27;;;;;;;1.70;1.70;;;;;;;11.15;100.00;101654.63;5086516;28;20202;-74
2022/10/17 01:18:04;;;;;;;0.70;0.70;;;;;;;11.34;100.00;101683.03;5092439;28;20229;-73
2022/10/17 01:20:57;;;;;;;0.90;0.90;;;;;;;11.34;100.00;101685.63;5084286;28;20757;-73
2022/10/17 01:23:57;;;;;;;0.70;0.70;;;;;;;11.31;100.00;101688.09;5083570;28;20190;-73
2022/10/17 01:26:36;;;;;;;0.70;0.70;;;;;;;11.21;100.00;101685.09;5031565;28;20208;-73
2022/10/17 01:29:29;;;;;;;0.68;0.68;;;;;;;11.23;100.00;101699.03;5033259;28;20595;-73
2022/10/17 01:32:02;;;;;;;0.90;0.90;;;;;;;11.16;100.00;101692.75;4955705;28;20297;-73
2022/10/17 01:34:35;;;;;;;0.70;0.70;;;;;;;11.07;100.00;101692.38;4953218;28;20206;-73
2022/10/17 01:37:11;;;;;;;0.90;0.90;;;;;;;10.98;100.00;101691.13;4912842;28;20298;-73
2022/10/17 01:39:44;;;;;;;0.60;0.60;;;;;;;11.00;100.00;101699.84;4951858;28;20221;-73
2022/10/17 01:42:15;;;;;;;0.70;0.70;;;;;;;10.96;100.00;101698.84;4952638;28;20202;-73
2022/10/17 01:44:48;;;;;;;0.60;0.60;;;;;;;10.93;100.00;101697.03;4954564;28;20230;-73
2022/10/17 01:47:20;;;;;;;0.70;0.70;;;;;;;10.83;100.00;101697.50;4923495;28;20205;-73
2022/10/17 01:49:50;;;;;;;0.70;0.70;;;;;;;10.77;100.00;101692.03;4954756;28;20721;-73
2022/10/17 01:52:22;;;;;;;0.70;0.70;;;;;;;10.71;100.00;101680.53;4951876;28;20202;-73
2022/10/17 01:54:53;;;;;;;0.70;0.70;;;;;;;10.77;100.00;101696.38;4952024;28;20254;-73
2022/10/17 01:57:25;;;;;;;0.70;0.70;;;;;;;10.66;100.00;101680.38;4955596;28;20331;-73
2022/10/17 01:59:54;;;;;;;0.70;0.70;;;;;;;10.63;100.00;101693.19;4953979;28;20222;-73
2022/10/17 02:02:24;;;;;;;0.70;0.70;;;;;;;10.66;100.00;101706.31;4951632;28;20266;-73
2022/10/17 02:04:52;;;;;;;0.70;0.70;;;;;;;10.57;100.00;101705.03;5017326;28;20407;-73
2022/10/17 02:07:19;;;;;;;0.70;0.70;;;;;;;10.43;100.00;101699.28;5021051;28;20215;-73
2022/10/17 02:09:46;;;;;;;0.60;0.60;;;;;;;10.32;100.00;101680.69;5071701;28;20206;-72
2022/10/17 02:12:28;;;;;;;0.97;0.97;;;;;;;10.59;100.00;101706.91;5087790;28;20641;-73
2022/10/17 02:15:08;;;;;;;0.70;0.70;;;;;;;10.64;100.00;101707.06;5089489;28;20324;-73
2022/10/17 02:17:45;;;;;;;0.80;0.80;;;;;;;10.54;100.00;101703.22;5088705;28;20233;-73
2022/10/17 02:20:20;;;;;;;0.70;0.70;;;;;;;10.43;100.00;101697.59;5087737;28;20672;-73
2022/10/17 02:22:52;;;;;;;0.73;0.73;;;;;;;10.50;100.00;101705.59;5082027;28;20654;-72
2022/10/17 02:25:29;;;;;;;0.70;0.70;;;;;;;10.35;100.00;101704.16;5073774;28;20199;-73
2022/10/17 02:28:02;;;;;;;0.67;0.67;;;;;;;10.42;100.00;101707.88;5073823;28;20202;-73
2022/10/17 02:30:35;;;;;;;0.70;0.70;;;;;;;10.38;100.00;101719.84;5073851;28;20198;-73
2022/10/17 02:33:07;;;;;;;0.73;0.73;;;;;;;10.26;100.00;101685.63;5074131;28;20198;-73
2022/10/17 02:35:38;;;;;;;0.70;0.70;;;;;;;10.35;100.00;101711.03;5084693;28;20264;-73
2022/10/17 02:38:08;;;;;;;0.73;0.73;;;;;;;10.27;100.00;101708.13;5087630;28;20194;-73
2022/10/17 02:40:37;;;;;;;0.70;0.70;;;;;;;10.15;100.00;101691.19;5086482;28;20237;-73
2022/10/17 02:43:04;;;;;;;0.70;0.70;;;;;;;10.18;100.00;101723.31;5086355;28;20604;-73
2022/10/17 02:45:34;;;;;;;0.70;0.70;;;;;;;10.15;100.00;101723.19;5089909;28;20217;-73
2022/10/17 02:48:09;;;;;;;0.93;0.93;;;;;;;10.27;100.00;101726.28;5087155;28;20199;-72
2022/10/17 02:50:48;;;;;;;0.80;0.80;;;;;;;10.26;100.00;101732.31;5089874;28;20651;-73
2022/10/17 02:53:22;;;;;;;0.70;0.70;;;;;;;9.87;100.00;101679.63;5085744;28;20201;-73
2022/10/17 02:55:54;;;;;;;0.70;0.70;;;;;;;10.16;100.00;101731.84;5087126;28;20202;-73
2022/10/17 02:58:25;;;;;;;0.70;0.70;;;;;;;10.13;100.00;101732.53;5086649;28;20298;-73
2022/10/17 03:00:53;;;;;;;0.80;0.80;;;;;;;10.07;100.00;101734.88;5085477;28;20647;-73
2022/10/17 03:03:23;;;;;;;0.73;0.73;;;;;;;9.97;100.00;101709.38;5086719;28;20263;-73
2022/10/17 03:05:51;;;;;;;0.70;0.70;;;;;;;9.93;100.00;101742.06;5087170;28;20852;-73
2022/10/17 03:08:17;;;;;;;0.90;0.90;;;;;;;9.94;100.00;101738.66;5087061;28;20202;-73
2022/10/17 03:10:44;;;;;;;0.80;0.80;;;;;;;9.90;100.00;101736.75;5088015;28;20257;-73
2022/10/17 03:13:11;;;;;;;0.77;0.77;;;;;;;9.91;100.00;101733.34;5088158;28;20186;-73
2022/10/17 03:15:38;;;;;;;0.80;0.80;;;;;;;9.93;100.00;101736.88;5090987;28;20205;-74
2022/10/17 03:18:05;;;;;;;0.70;0.70;;;;;;;9.88;100.00;101732.31;5087883;28;20294;-73
2022/10/17 03:20:33;;;;;;;0.80;0.80;;;;;;;9.64;100.00;101679.41;5086988;28;20229;-73
2022/10/17 03:23:00;;;;;;;0.80;0.80;;;;;;;9.85;100.00;101737.34;5085868;28;20206;-73
2022/10/17 03:25:27;;;;;;;0.80;0.80;;;;;;;9.89;100.00;101739.25;5085951;28;20728;-73
2022/10/17 03:27:53;;;;;;;0.80;0.80;;;;;;;9.79;100.00;101732.78;5086636;28;20618;-73
2022/10/17 03:30:20;;;;;;;0.70;0.70;;;;;;;9.89;100.00;101749.63;5087173;28;20198;-73
2022/10/17 03:32:47;;;;;;;0.90;0.90;;;;;;;9.83;100.00;101744.16;5086615;28;20206;-73
2022/10/17 03:35:14;;;;;;;0.70;0.70;;;;;;;9.95;100.00;101748.19;5087551;28;20220;-73
2022/10/17 03:37:42;;;;;;;0.70;0.70;;;;;;;9.99;100.00;101746.59;5085588;28;20210;-73
2022/10/17 03:40:10;;;;;;;0.70;0.70;;;;;;;9.88;100.00;101753.03;5086275;28;20792;-73
2022/10/17 03:42:36;;;;;;;4.80;1.23;;;;;;;9.77;100.00;101747.38;5086362;28;20593;-73
2022/10/17 03:45:04;;;;;;;0.70;0.70;;;;;;;9.60;100.00;101725.00;5089699;28;20197;-72
2022/10/17 03:47:30;;;;;;;0.73;0.73;;;;;;;9.50;100.00;101722.81;5085215;28;20217;-73
2022/10/17 03:49:57;;;;;;;1.63;1.63;;;;;;;9.66;100.00;101742.53;5088002;28;20198;-73
2022/10/17 03:52:24;;;;;;;0.80;0.80;;;;;;;9.63;100.00;101757.94;5087268;28;20713;-73
2022/10/17 03:54:52;;;;;;;0.70;0.70;;;;;;;9.74;100.00;101764.47;5086610;28;20650;-73
2022/10/17 03:57:19;;;;;;;0.77;0.77;;;;;;;9.62;100.00;101763.94;5085267;28;20206;-73
2022/10/17 03:59:46;;;;;;;0.77;0.77;;;;;;;9.61;100.00;101767.31;5085839;28;20232;-73
2022/10/17 04:02:13;;;;;;;0.70;0.70;;;;;;;9.57;100.00;101758.53;5084932;28;20198;-73
2022/10/17 04:04:40;;;;;;;0.70;0.70;;;;;;;9.60;100.00;101771.63;5086441;28;20205;-72
2022/10/17 04:07:06;;;;;;;0.80;0.80;;;;;;;9.45;100.00;101750.22;5083980;28;20205;-73
2022/10/17 04:09:33;;;;;;;0.70;0.70;;;;;;;9.59;100.00;101785.41;5051332;28;20198;-74
2022/10/17 04:12:01;;;;;;;0.80;0.80;;;;;;;9.60;100.00;101765.53;5040968;28;20202;-72
2022/10/17 04:14:28;;;;;;;0.80;0.80;;;;;;;9.58;100.00;101790.50;5087189;28;20198;-72
2022/10/17 04:16:55;;;;;;;0.70;0.70;;;;;;;9.54;100.00;101791.16;5085056;28;20198;-73
2022/10/17 04:19:22;;;;;;;0.80;0.80;;;;;;;9.35;100.00;101769.59;5086412;28;20233;-73
2022/10/17 04:21:48;;;;;;;0.90;0.90;;;;;;;9.25;100.00;101764.81;5085245;28;20186;-72
2022/10/17 04:24:16;;;;;;;0.70;0.70;;;;;;;9.25;100.00;101767.41;5049437;28;20206;-72
2022/10/17 04:26:42;;;;;;;0.70;0.70;;;;;;;9.33;100.00;101780.69;5085212;28;20202;-73
2022/10/17 04:29:11;;;;;;;0.77;0.77;;;;;;;9.48;100.00;101793.47;5040339;28;20202;-74
2022/10/17 04:31:38;;;;;;;1.10;1.10;;;;;;;9.28;100.00;101796.00;5084025;28;20202;-73
2022/10/17 04:34:05;;;;;;;0.70;0.70;;;;;;;9.15;100.00;101759.13;5085950;28;21054;-73
2022/10/17 04:36:31;;;;;;;1.03;1.03;;;;;;;9.17;100.00;101758.38;5085458;28;20256;-74
2022/10/17 04:39:00;;;;;;;0.80;0.80;;;;;;;9.01;100.00;101724.84;5084600;28;20205;-74
2022/10/17 04:41:27;;;;;;;0.80;0.80;;;;;;;9.21;100.00;101791.34;5085101;28;20232;-72
2022/10/17 04:43:54;;;;;;;1.07;1.07;;;;;;;9.16;100.00;101790.25;5085382;28;20198;-72
2022/10/17 04:46:22;;;;;;;0.80;0.80;;;;;;;9.33;100.00;101807.47;5089918;28;20198;-72
2022/10/17 04:48:48;;;;;;;0.70;0.70;;;;;;;9.11;100.00;101796.91;5087226;28;20210;-73
2022/10/17 04:51:17;;;;;;;0.70;0.70;;;;;;;9.30;100.00;101814.22;5050782;28;20225;-73
2022/10/17 04:53:44;;;;;;;0.70;0.70;;;;;;;9.31;100.00;101819.44;5085666;28;20201;-73
2022/10/17 04:56:13;;;;;;;0.70;0.70;;;;;;;9.27;100.00;101788.19;5081944;28;20205;-72
2022/10/17 04:58:41;;;;;;;1.43;1.43;;;;;;;8.89;100.00;101724.25;5056955;28;20201;-73
2022/10/17 05:01:09;;;;;;;0.70;0.70;;;;;;;9.44;100.00;101821.81;5084006;28;20234;-73
2022/10/17 05:03:37;;;;;;;0.80;0.80;;;;;;;9.53;100.00;101828.22;5085270;28;20198;-72
2022/10/17 05:06:06;;;;;;;0.70;0.70;;;;;;;9.56;100.00;101825.81;5084765;28;20618;-73
2022/10/17 05:08:33;;;;;;;0.80;0.80;;;;;;;9.53;100.00;101831.69;5081856;28;20213;-73
2022/10/17 05:10:59;;;;;;;0.70;0.70;;;;;;;9.61;100.00;101824.31;5084208;28;20220;-71
2022/10/17 05:13:26;;;;;;;0.70;0.70;;;;;;;9.63;100.00;101830.47;5080421;28;20693;-70
2022/10/17 05:15:53;;;;;;;1.20;1.20;;;;;;;10.10;100.00;101810.16;5069423;28;20194;-72
2022/10/17 05:18:20;;;;;;;0.70;0.70;;;;;;;10.67;100.00;101803.16;5080654;28;20620;-70
2022/10/17 05:20:48;;;;;;;0.90;0.90;;;;;;;10.67;100.00;101814.44;5082255;28;20230;-72
2022/10/17 05:23:15;;;;;;;0.60;0.60;;;;;;;10.30;100.00;101806.81;5085609;28;20304;-72
2022/10/17 05:25:42;;;;;;;0.70;0.70;;;;;;;10.36;100.00;101838.16;5078867;28;20660;-71
2022/10/17 05:28:08;;;;;;;0.70;0.70;;;;;;;10.16;100.00;101828.63;5088689;28;20546;-71
2022/10/17 05:30:36;;;;;;;0.80;0.80;;;;;;;10.45;100.00;101838.56;5089469;28;20209;-70
2022/10/17 05:33:03;;;;;;;0.70;0.70;;;;;;;10.51;100.00;101845.75;5070654;28;20226;-72
2022/10/17 05:35:29;;;;;;;1.33;1.23;;;;;;;10.57;100.00;101858.97;5074197;28;20210;-71
2022/10/17 05:37:58;;;;;;;0.70;0.70;;;;;;;10.55;100.00;101860.63;5073166;28;20213;-70
2022/10/17 05:40:25;;;;;;;0.70;0.70;;;;;;;10.70;100.00;101860.38;5040464;28;20231;-71
2022/10/17 05:42:52;;;;;;;0.63;0.63;;;;;;;10.65;100.00;101867.06;5076357;28;20198;-73
2022/10/17 05:45:19;;;;;;;0.70;0.70;;;;;;;10.70;100.00;101878.56;5084793;28;20201;-72
2022/10/17 05:47:46;;;;;;;1.33;1.33;;;;;;;10.81;100.00;101861.72;5078126;28;20203;-72
2022/10/17 05:50:12;;;;;;;0.80;0.80;;;;;;;10.58;100.00;101876.31;5074047;28;20202;-71
2022/10/17 05:52:39;;;;;;;0.80;0.80;;;;;;;10.71;100.00;101885.50;5074616;28;20709;-71
2022/10/17 05:55:08;;;;;;;1.00;1.00;;;;;;;10.43;100.00;101808.19;5074426;28;20209;-70
2022/10/17 05:57:35;;;;;;;0.70;0.70;;;;;;;11.00;100.00;101890.22;5042628;28;20230;-72
2022/10/17 06:00:02;;;;;;;0.73;0.73;;;;;;;10.96;100.00;101890.91;5072698;28;20719;-72
2022/10/17 06:02:30;;;;;;;0.70;0.70;;;;;;;10.99;100.00;101903.16;5074100;28;20218;-73
2022/10/17 06:04:57;;;;;;;0.70;0.70;;;;;;;10.95;100.00;101902.13;5073808;28;20341;-71
2022/10/17 06:07:24;;;;;;;0.70;0.70;;;;;;;10.97;100.00;101897.88;5073587;28;20198;-71
2022/10/17 06:09:50;;;;;;;0.80;0.80;;;;;;;10.86;100.00;101905.22;5088374;28;20257;-72
2022/10/17 06:12:19;;;;;;;0.80;0.80;;;;;;;10.80;100.00;101878.13;5073809;28;20203;-71
2022/10/17 06:14:46;;;;;;;0.98;0.95;;;;;;;10.92;100.00;101909.75;5073380;28;20206;-71
2022/10/17 06:17:12;;;;;;;0.70;0.70;;;;;;;11.00;100.00;101912.69;5073342;28;20207;-71
2022/10/17 06:19:40;;;;;;;0.90;0.90;;;;;;;10.84;100.00;101901.66;5062145;28;20207;-71
2022/10/17 06:22:07;;;;;;;0.80;0.80;;;;;;;10.98;100.00;101920.44;5062560;28;20231;-71
2022/10/17 06:24:34;;;;;;;0.70;0.70;;;;;;;11.13;100.00;101928.00;5056790;28;20261;-70
2022/10/17 06:27:00;;;;;;;0.80;0.80;;;;;;;11.54;100.00;101920.19;5065212;28;20203;-71
2022/10/17 06:29:28;;;;;;;0.70;0.70;;;;;;;11.64;100.00;101911.94;5045333;28;20211;-70
2022/10/17 06:31:55;;;;;;;1.02;1.02;;;;;;;11.25;100.00;101843.69;5067864;28;20214;-71
2022/10/17 06:34:22;;;;;;;0.60;0.60;;;;;;;11.83;100.00;101934.38;5052896;28;20461;-73
2022/10/17 06:36:49;;;;;;;0.70;0.70;;;;;;;11.84;100.00;101941.34;5047935;28;20349;-71
2022/10/17 06:39:16;;;;;;;0.70;0.70;;;;;;;12.23;100.00;101929.00;5056580;28;20570;-69
2022/10/17 06:41:43;;;;;;;3.67;3.35;;;;;;;12.23;100.00;101935.09;5063339;28;20226;-70
2022/10/17 06:44:10;;;;;;;0.70;0.70;;;;;;;12.14;100.00;101942.53;5059720;28;20223;-73
2022/10/17 06:46:39;;;;;;;0.88;0.88;;;;;;;11.91;100.00;101917.38;5062187;28;20281;-70
2022/10/17 06:49:06;;;;;;;1.23;1.23;;;;;;;12.13;100.00;101945.09;5054141;28;20298;-72
2022/10/17 06:51:36;;;;;;;1.05;1.05;;;;;;;12.35;100.00;101951.16;5068408;28;20210;-71
2022/10/17 06:54:03;;;;;;;0.77;0.77;;;;;;;11.99;100.00;101918.53;5062849;28;20207;-72
2022/10/17 06:56:30;;;;;;;1.05;1.05;;;;;;;12.11;100.00;101939.81;5060046;28;20198;-75
2022/10/17 06:58:56;;;;;;;0.90;0.90;;;;;;;12.17;100.00;101942.63;5057614;28;20195;-72
2022/10/17 07:01:23;;;;;;;1.15;1.15;;;;;;;12.17;100.00;101946.94;5069241;28;20215;-73
2022/10/17 07:03:51;;;;;;;1.33;1.33;;;;;;;12.23;100.00;101952.41;5055669;28;20199;-72
2022/10/17 07:06:18;;;;;;;0.80;0.80;;;;;;;12.12;100.00;101951.09;5057554;28;20191;-72
2022/10/17 07:08:47;;;;;;;0.70;0.70;;;;;;;12.21;100.00;101954.94;5061564;28;20206;-72
2022/10/17 07:11:15;;;;;;;1.20;1.20;;;;;;;12.20;100.00;101958.34;5059720;28;20234;-72
2022/10/17 07:13:42;;;;;;;0.70;0.70;;;;;;;12.07;100.00;101945.72;5064898;28;20199;-71
2022/10/17 07:16:09;;;;;;;0.80;0.80;;;;;;;12.31;100.00;101957.06;5057789;28;20206;-72
2022/10/17 07:18:36;;;;;;;0.98;0.93;;;;;;;12.39;100.00;101965.16;5069167;28;20300;-72
2022/10/17 07:21:05;;;;;;;1.08;1.08;;;;;;;12.66;100.00;101965.31;5060690;28;20235;-74
2022/10/17 07:23:33;;;;;;;0.77;0.77;;;;;;;12.48;100.00;101969.81;5057680;28;20269;-71
2022/10/17 07:26:00;;;;;;;0.90;0.90;;;;;;;12.76;100.00;101968.31;5071999;28;20199;-70
2022/10/17 07:28:27;;;;;;;0.90;0.90;;;;;;;12.82;100.00;101978.03;5071806;28;20650;-69
2022/10/17 07:30:54;;;;;;;0.90;0.90;;;;;;;12.91;100.00;101981.00;5071465;28;20310;-70
2022/10/17 07:33:21;;;;;;;0.75;0.75;;;;;;;12.91;100.00;101963.63;5052680;28;20199;-70
2022/10/17 07:35:48;;;;;;;3.53;2.08;;;;;;;12.97;100.00;101969.88;5057669;28;20203;-70
2022/10/17 07:38:16;;;;;;;0.80;0.80;;;;;;;13.18;100.00;101973.28;5071739;28;20210;-69
2022/10/17 07:40:43;;;;;;;0.80;0.80;;;;;;;13.37;100.00;101987.00;5057360;28;20230;-70
2022/10/17 07:43:10;;;;;;;0.80;0.80;;;;;;;13.30;100.00;101981.53;5071659;28;20276;-70
2022/10/17 07:45:36;;;;;;;0.70;0.70;;;;;;;13.24;100.00;101974.38;5071623;28;20624;-70
2022/10/17 07:48:03;;;;;;;0.75;0.75;;;;;;;13.35;100.00;101987.75;5071937;28;20230;-71
2022/10/17 07:50:31;;;;;;;0.70;0.70;;;;;;;13.57;100.00;101984.16;5071112;28;20211;-71
2022/10/17 07:52:58;;;;;;;0.70;0.70;;;;;;;13.33;100.00;101966.88;5071408;28;20325;-71
2022/10/17 07:55:26;;;;;;;0.88;0.88;;;;;;;13.74;100.00;101989.09;5059520;28;20257;-70
2022/10/17 07:57:53;;;;;;;0.80;0.80;;;;;;;13.70;100.00;101992.44;5069551;28;20202;-71
2022/10/17 08:00:20;;;;;;;1.05;1.05;;;;;;;13.72;100.00;101975.13;5071364;28;20210;-71
2022/10/17 08:02:47;;;;;;;0.70;0.70;;;;;;;13.95;100.00;101986.28;5071288;28;20679;-71
2022/10/17 08:05:14;;;;;;;0.80;0.80;;;;;;;13.82;100.00;101989.34;5071012;28;20991;-71
2022/10/17 08:07:40;;;;;;;0.65;0.65;;;;;;;13.97;100.00;101981.13;5071178;28;20206;-71
2022/10/17 08:10:08;;;;;;;1.17;1.17;;;;;;;14.04;100.00;101963.13;5071118;28;20229;-72
2022/10/17 08:12:37;;;;;;;0.70;0.70;;;;;;;14.31;100.00;101992.66;5070951;28;20206;-71
2022/10/17 08:15:04;;;;;;;0.60;0.60;;;;;;;14.19;100.00;101984.47;5070734;28;20203;-71
2022/10/17 08:17:31;;;;;;;0.73;0.73;;;;;;;14.52;100.00;101983.75;5070544;28;20206;-72
2022/10/17 08:19:58;;;;;;;0.70;0.70;;;;;;;14.64;96.32;101994.53;5085730;28;20202;-72
2022/10/17 08:22:25;;;;;;;0.60;0.60;;;;;;;14.82;94.40;101984.59;5070266;28;20230;-72
2022/10/17 08:24:52;;;;;;;1.45;1.40;;;;;;;15.06;91.73;101995.72;5070735;28;20207;-73
2022/10/17 08:27:22;;;;;;;1.08;0.90;;;;;;;15.09;89.30;101987.97;5056439;28;20202;-74
2022/10/17 08:29:52;;;;;;;0.60;0.60;;;;;;;14.93;86.34;101969.22;5071219;28;20239;-73
2022/10/17 08:32:19;;;;;;;0.60;0.60;;;;;;;15.15;86.54;101979.44;5070144;28;20256;-73
2022/10/17 08:34:46;;;;;;;0.63;0.63;;;;;;;15.24;83.93;101963.97;5070420;28;20301;-73
2022/10/17 08:37:13;;;;;;;0.70;0.70;;;;;;;15.48;80.43;101997.72;5049956;28;20214;-73
2022/10/17 08:39:40;;;;;;;1.30;1.20;;;;;;;15.45;77.39;101992.38;5065546;28;20202;-74
2022/10/17 08:42:31;;;;;;;0.60;0.60;;;;;;;15.81;72.33;101996.84;5068785;28;20238;-73
2022/10/17 08:45:07;;;;;;;0.60;0.60;;;;;;;15.65;73.13;101992.13;5061333;28;20211;-71
2022/10/17 08:47:37;;;;;;;0.60;0.60;;;;;;;15.92;70.03;101984.03;5061876;28;20202;-72
2022/10/17 08:50:07;;;;;;;0.60;0.60;;;;;;;16.06;70.86;101984.34;5070241;28;20206;-71
2022/10/17 08:52:39;;;;;;;0.60;0.60;;;;;;;16.09;65.66;101980.06;5070269;28;20267;-71
2022/10/17 08:55:15;;;;;;;0.60;0.60;;;;;;;16.35;64.33;101991.13;5070298;28;20199;-72
2022/10/17 08:57:42;;;;;;;0.63;0.63;;;;;;;16.26;64.00;101993.56;5070501;28;20202;-72
2022/10/17 09:00:17;;;;;;;0.60;0.60;;;;;;;16.49;61.79;102004.50;5070053;28;20201;-72
2022/10/17 09:02:54;;;;;;;0.70;0.70;;;;;;;16.57;61.02;102001.25;5069876;28;20610;-71
2022/10/17 09:05:36;;;;;;;0.60;0.60;;;;;;;16.71;62.09;102006.78;5070089;28;20583;-73
2022/10/17 09:08:14;;;;;;;0.60;0.60;;;;;;;16.85;62.39;101997.47;5070367;28;20214;-72
2022/10/17 09:10:55;;;;;;;0.70;0.70;;;;;;;16.88;61.62;101984.41;5056396;28;20596;-73
2022/10/17 09:13:32;;;;;;;0.73;0.73;;;;;;;16.61;59.72;101965.53;5056417;28;20269;-72
2022/10/17 09:16:23;;;;;;;0.93;0.93;;;;;;;16.93;57.36;101998.50;5051898;28;20620;-74
2022/10/17 09:19:01;;;;;;;0.60;0.60;;;;;;;16.81;58.19;102003.50;5069078;28;20226;-74
2022/10/17 09:21:36;;;;;;;0.60;0.60;;;;;;;16.90;56.08;102003.69;5084223;28;20218;-72
2022/10/17 09:24:10;;;;;;;0.80;0.80;;;;;;;16.80;51.44;102012.22;5070086;28;20592;-72
2022/10/17 09:26:38;;;;;;;0.60;0.60;;;;;;;16.94;48.93;102000.28;5057369;28;20757;-72
2022/10/17 09:29:15;;;;;;;0.60;0.60;;;;;;;17.13;51.64;102005.00;5069054;28;20207;-70
2022/10/17 09:31:47;;;;;;;0.50;0.50;;;;;;;17.22;51.16;101999.94;5069842;28;20267;-71
2022/10/17 09:34:16;;;;;;;0.60;0.60;;;;;;;16.97;48.98;102000.34;5069807;28;20195;-71
2022/10/17 09:36:42;;;;;;;0.80;0.80;;;;;;;16.90;47.17;101977.50;5070274;28;20680;-70
2022/10/17 09:39:13;;;;;;;0.65;0.65;;;;;;;17.28;49.35;102005.31;5051856;28;20199;-71
2022/10/17 09:41:43;;;;;;;0.63;0.63;;;;;;;17.24;48.66;101979.88;5052494;28;20231;-69
2022/10/17 09:44:21;;;;;;;0.60;0.60;;;;;;;17.48;48.07;101989.06;5073040;28;20241;-71
2022/10/17 09:47:12;;;;;;;0.70;0.70;;;;;;;17.40;48.70;101983.66;5069871;28;20754;-69
2022/10/17 09:49:41;;;;;;;0.70;0.70;;;;;;;17.16;48.88;101991.94;5056116;28;20206;-68
2022/10/17 09:52:13;;;;;;;0.70;0.70;;;;;;;17.27;48.75;101990.41;5069975;28;20217;-69
2022/10/17 09:54:44;;;;;;;0.60;0.60;;;;;;;17.53;48.04;101977.75;5050990;28;20661;-69
2022/10/17 09:57:13;;;;;;;0.80;0.80;;;;;;;17.27;46.84;101958.06;5069677;28;20206;-69
2022/10/17 09:59:41;;;;;;;0.60;0.60;;;;;;;17.52;43.57;101980.34;5069834;28;20230;-69
2022/10/17 10:02:19;;;;;;;0.60;0.60;;;;;;;17.60;42.72;101979.66;5050896;28;20692;-69
2022/10/17 10:04:57;;;;;;;0.57;0.57;;;;;;;17.32;43.67;101928.47;5069736;28;20191;-69
2022/10/17 10:07:25;;;;;;;0.70;0.70;;;;;;;17.73;43.92;101975.50;5069497;28;20199;-69
2022/10/17 10:09:53;;;;;;;3.30;1.67;;;;;;;17.81;44.43;101973.88;5069896;28;20199;-69
2022/10/17 10:12:22;;;;;;;0.70;0.70;;;;;;;17.85;44.06;101973.06;5069246;28;20563;-69
2022/10/17 10:14:49;;;;;;;0.70;0.70;;;;;;;17.64;44.51;101917.63;5069429;28;20667;-69
2022/10/17 10:17:40;;;;;;;0.70;0.70;;;;;;;17.82;44.88;101963.41;5069095;28;20206;-69
2022/10/17 10:20:26;;;;;;;0.60;0.60;;;;;;;17.89;45.40;101966.13;5069434;28;20217;-69
2022/10/17 10:23:07;;;;;;;0.70;0.70;;;;;;;17.93;44.95;101960.06;5069562;28;20234;-69
2022/10/17 10:25:36;;;;;;;1.10;1.10;;;;;;;17.81;45.39;101947.63;5069503;28;20705;-69
2022/10/17 10:28:10;;;;;;;0.60;0.60;;;;;;;17.83;45.07;101928.44;5069333;28;20235;-69
2022/10/17 10:30:37;;;;;;;0.60;0.60;;;;;;;18.03;44.79;101952.34;5073114;28;20195;-69
2022/10/17 10:33:06;;;;;;;0.60;0.60;;;;;;;18.27;44.28;101954.44;5073150;28;20210;-70
2022/10/17 10:35:35;;;;;;;0.60;0.60;;;;;;;18.24;43.52;101950.03;5073182;28;20199;-69
2022/10/17 10:38:10;;;;;;;0.60;0.60;;;;;;;18.12;44.40;101947.22;5054413;28;20611;-70
2022/10/17 10:40:44;;;;;;;0.60;0.60;;;;;;;18.31;44.48;101940.47;5073027;28;20198;-72
2022/10/17 10:43:22;;;;;;;0.60;0.60;;;;;;;18.44;43.60;101946.78;5072987;28;20237;-69
2022/10/17 10:45:49;;;;;;;0.90;0.90;;;;;;;18.42;43.67;101922.22;5072712;28;20195;-69
2022/10/17 10:48:22;;;;;;;0.65;0.65;;;;;;;18.64;44.19;101937.44;5072961;28;20622;-69
2022/10/17 10:50:52;;;;;;;0.60;0.60;;;;;;;18.75;44.02;101935.81;5072958;28;20221;-70
2022/10/17 10:53:36;;;;;;;0.80;0.80;;;;;;;18.69;44.40;101933.13;5072727;28;20205;-70
2022/10/17 10:56:08;;;;;;;0.60;0.60;;;;;;;18.89;44.93;101930.69;5072617;28;20191;-71
2022/10/17 10:58:44;;;;;;;0.60;0.60;;;;;;;18.84;44.46;101941.16;5072748;28;20290;-71
2022/10/17 11:01:17;;;;;;;0.70;0.70;;;;;;;18.87;44.21;101925.41;5072644;28;20205;-70
2022/10/17 11:04:20;;;;;;;1.15;1.15;;;;;;;18.93;44.69;101922.88;5072345;28;20202;-70
2022/10/17 11:06:50;;;;;;;0.65;0.65;;;;;;;18.81;44.65;101913.09;5072750;28;20202;-70
2022/10/17 11:09:26;;;;;;;0.88;0.88;;;;;;;18.78;45.01;101864.88;5072480;28;20187;-70
2022/10/17 11:11:58;;;;;;;0.70;0.70;;;;;;;19.17;44.13;101909.94;5072294;28;20194;-70
2022/10/17 11:14:36;;;;;;;0.70;0.70;;;;;;;19.24;43.43;101918.78;5072552;28;20206;-70
2022/10/17 11:17:12;;;;;;;0.60;0.60;;;;;;;19.08;43.78;101912.50;5072515;28;20587;-70
2022/10/17 11:19:45;;;;;;;0.70;0.70;;;;;;;19.14;43.70;101886.25;5054611;28;20245;-71
2022/10/17 11:22:16;;;;;;;0.70;0.70;;;;;;;19.12;43.45;101898.50;5071988;28;20276;-70
2022/10/17 11:24:55;;;;;;;0.70;0.70;;;;;;;19.26;43.00;101891.59;5072163;28;20661;-70
2022/10/17 11:27:23;;;;;;;0.60;0.60;;;;;;;19.17;42.79;101886.28;5071892;28;20206;-72
2022/10/17 11:29:50;;;;;;;0.60;0.60;;;;;;;19.13;43.27;101887.13;5072097;28;20210;-70
2022/10/17 11:32:23;;;;;;;0.60;0.60;;;;;;;19.10;43.10;101884.47;5053131;28;20203;-70
2022/10/17 11:34:59;;;;;;;0.70;0.70;;;;;;;19.29;42.51;101875.88;5071839;28;20195;-70